Calhoun, Tennessee
Current Conditions -  °F | °C
As of 11:15 AM on Thursday 29 Jan 2015 (Local Time) from KRZR Reporting Station
Overcast Overcast  
Wind Chill: 38°   Ceiling: 7500
Heat Index: 45°   Visibility: 10mi
Dew Point: 30°   Wind: 13mph
Humidity: 57%   Direction: 190°S
Pressure: 30.19"   Gusts: NA
Location:  35.3°N, 84.75°W
Report Text: KRZR 291615Z AUTO 19011KT 150V210 10SM SCT060 BKN075 OVC080 07/M01 A3019 RMK
Loading
Personal Weather Stations






























Interactive Weather Map New forecast layout! Learn more

10-Day Weather Forecast

Advertisements
Track Severe Weather on mobile